sensor_id;sensor_type;location;lat;lon;timestamp;P1;durP1;ratioP1;P2;durP2;ratioP2
13061;SDS011;6597;52.218;9.882;2023-05-07T00:00:18;21.70;;;12.97;;
13061;SDS011;6597;52.218;9.882;2023-05-07T00:02:46;24.27;;;13.10;;
13061;SDS011;6597;52.218;9.882;2023-05-07T00:05:13;22.57;;;14.10;;
13061;SDS011;6597;52.218;9.882;2023-05-07T00:07:40;25.60;;;14.07;;
13061;SDS011;6597;52.218;9.882;2023-05-07T00:10:07;29.30;;;14.83;;
13061;SDS011;6597;52.218;9.882;2023-05-07T00:12:34;25.60;;;14.97;;
13061;SDS011;6597;52.218;9.882;2023-05-07T00:15:01;28.73;;;14.00;;
13061;SDS011;6597;52.218;9.882;2023-05-07T00:17:28;29.80;;;16.00;;
13061;SDS011;6597;52.218;9.882;2023-05-07T00:19:56;33.87;;;16.50;;
13061;SDS011;6597;52.218;9.882;2023-05-07T00:22:23;30.73;;;16.90;;
13061;SDS011;6597;52.218;9.882;2023-05-07T00:24:50;33.37;;;15.43;;
13061;SDS011;6597;52.218;9.882;2023-05-07T00:27:16;28.23;;;14.57;;
13061;SDS011;6597;52.218;9.882;2023-05-07T00:29:43;29.63;;;16.90;;
13061;SDS011;6597;52.218;9.882;2023-05-07T00:32:09;34.23;;;18.43;;
13061;SDS011;6597;52.218;9.882;2023-05-07T00:34:36;29.67;;;16.23;;
13061;SDS011;6597;52.218;9.882;2023-05-07T00:37:04;36.73;;;16.10;;
13061;SDS011;6597;52.218;9.882;2023-05-07T00:39:32;32.67;;;16.20;;
13061;SDS011;6597;52.218;9.882;2023-05-07T00:41:58;30.67;;;15.23;;
13061;SDS011;6597;52.218;9.882;2023-05-07T00:44:25;31.07;;;16.97;;
13061;SDS011;6597;52.218;9.882;2023-05-07T00:46:53;27.73;;;14.87;;
13061;SDS011;6597;52.218;9.882;2023-05-07T00:49:20;31.07;;;15.57;;
13061;SDS011;6597;52.218;9.882;2023-05-07T00:51:47;33.93;;;17.30;;
13061;SDS011;6597;52.218;9.882;2023-05-07T00:54:15;35.07;;;16.03;;
13061;SDS011;6597;52.218;9.882;2023-05-07T00:56:41;35.27;;;16.67;;
13061;SDS011;6597;52.218;9.882;2023-05-07T00:59:08;39.27;;;16.73;;
13061;SDS011;6597;52.218;9.882;2023-05-07T01:01:35;30.47;;;15.93;;
13061;SDS011;6597;52.218;9.882;2023-05-07T01:04:01;32.17;;;16.97;;
13061;SDS011;6597;52.218;9.882;2023-05-07T01:06:28;30.30;;;16.00;;
13061;SDS011;6597;52.218;9.882;2023-05-07T01:08:55;37.27;;;16.80;;
13061;SDS011;6597;52.218;9.882;2023-05-07T01:11:23;31.60;;;17.27;;
13061;SDS011;6597;52.218;9.882;2023-05-07T01:13:50;30.80;;;15.97;;
13061;SDS011;6597;52.218;9.882;2023-05-07T01:16:18;41.27;;;16.93;;
13061;SDS011;6597;52.218;9.882;2023-05-07T01:18:45;35.50;;;15.63;;
13061;SDS011;6597;52.218;9.882;2023-05-07T01:21:13;35.17;;;17.10;;
13061;SDS011;6597;52.218;9.882;2023-05-07T01:23:45;30.97;;;15.30;;
13061;SDS011;6597;52.218;9.882;2023-05-07T01:26:12;37.43;;;17.43;;
13061;SDS011;6597;52.218;9.882;2023-05-07T01:28:43;31.13;;;15.63;;
13061;SDS011;6597;52.218;9.882;2023-05-07T01:31:10;26.37;;;14.87;;
13061;SDS011;6597;52.218;9.882;2023-05-07T01:33:40;32.00;;;15.90;;
13061;SDS011;6597;52.218;9.882;2023-05-07T01:36:09;40.00;;;16.87;;
13061;SDS011;6597;52.218;9.882;2023-05-07T01:38:37;35.73;;;14.67;;
13061;SDS011;6597;52.218;9.882;2023-05-07T01:41:07;23.73;;;14.10;;
13061;SDS011;6597;52.218;9.882;2023-05-07T01:43:33;25.33;;;14.47;;
13061;SDS011;6597;52.218;9.882;2023-05-07T01:46:00;30.50;;;14.53;;
13061;SDS011;6597;52.218;9.882;2023-05-07T01:48:28;26.87;;;13.33;;
13061;SDS011;6597;52.218;9.882;2023-05-07T01:50:55;27.43;;;14.17;;
13061;SDS011;6597;52.218;9.882;2023-05-07T01:53:22;22.73;;;12.50;;
13061;SDS011;6597;52.218;9.882;2023-05-07T01:55:48;26.27;;;12.83;;
13061;SDS011;6597;52.218;9.882;2023-05-07T01:58:17;25.70;;;13.53;;
13061;SDS011;6597;52.218;9.882;2023-05-07T02:00:43;23.13;;;12.63;;
13061;SDS011;6597;52.218;9.882;2023-05-07T02:03:10;27.03;;;12.87;;
13061;SDS011;6597;52.218;9.882;2023-05-07T02:05:48;19.73;;;12.27;;
13061;SDS011;6597;52.218;9.882;2023-05-07T02:08:22;20.43;;;11.63;;
13061;SDS011;6597;52.218;9.882;2023-05-07T02:10:48;24.23;;;12.43;;
13061;SDS011;6597;52.218;9.882;2023-05-07T02:13:17;24.00;;;12.23;;
13061;SDS011;6597;52.218;9.882;2023-05-07T02:15:45;21.20;;;10.80;;
13061;SDS011;6597;52.218;9.882;2023-05-07T02:18:15;21.67;;;12.40;;
13061;SDS011;6597;52.218;9.882;2023-05-07T02:20:42;21.57;;;11.40;;
13061;SDS011;6597;52.218;9.882;2023-05-07T02:23:09;20.70;;;12.23;;
13061;SDS011;6597;52.218;9.882;2023-05-07T02:25:35;24.90;;;12.47;;
13061;SDS011;6597;52.218;9.882;2023-05-07T02:28:02;21.93;;;12.13;;
13061;SDS011;6597;52.218;9.882;2023-05-07T02:30:42;22.93;;;11.20;;
13061;SDS011;6597;52.218;9.882;2023-05-07T02:33:08;17.77;;;10.40;;
13061;SDS011;6597;52.218;9.882;2023-05-07T02:35:37;22.67;;;11.30;;
13061;SDS011;6597;52.218;9.882;2023-05-07T02:38:04;19.30;;;11.33;;
13061;SDS011;6597;52.218;9.882;2023-05-07T02:40:32;23.93;;;10.90;;
13061;SDS011;6597;52.218;9.882;2023-05-07T02:42:59;22.47;;;11.30;;
13061;SDS011;6597;52.218;9.882;2023-05-07T02:45:27;20.90;;;10.17;;
13061;SDS011;6597;52.218;9.882;2023-05-07T02:47:55;23.20;;;11.43;;
13061;SDS011;6597;52.218;9.882;2023-05-07T02:50:21;21.07;;;10.07;;
13061;SDS011;6597;52.218;9.882;2023-05-07T02:52:48;16.07;;;9.93;;
13061;SDS011;6597;52.218;9.882;2023-05-07T02:55:15;18.73;;;10.10;;
13061;SDS011;6597;52.218;9.882;2023-05-07T02:57:44;19.67;;;10.93;;
13061;SDS011;6597;52.218;9.882;2023-05-07T03:00:12;24.40;;;12.77;;
13061;SDS011;6597;52.218;9.882;2023-05-07T03:02:45;26.50;;;12.40;;
13061;SDS011;6597;52.218;9.882;2023-05-07T03:05:13;24.53;;;13.00;;
13061;SDS011;6597;52.218;9.882;2023-05-07T03:07:40;24.00;;;13.93;;
13061;SDS011;6597;52.218;9.882;2023-05-07T03:10:10;22.07;;;13.00;;
13061;SDS011;6597;52.218;9.882;2023-05-07T03:12:37;23.77;;;13.67;;
13061;SDS011;6597;52.218;9.882;2023-05-07T03:15:04;28.00;;;14.47;;
13061;SDS011;6597;52.218;9.882;2023-05-07T03:17:31;23.80;;;13.43;;
13061;SDS011;6597;52.218;9.882;2023-05-07T03:19:58;26.37;;;13.60;;
13061;SDS011;6597;52.218;9.882;2023-05-07T03:22:26;27.23;;;12.97;;
13061;SDS011;6597;52.218;9.882;2023-05-07T03:24:52;22.30;;;12.40;;
13061;SDS011;6597;52.218;9.882;2023-05-07T03:27:19;24.33;;;13.40;;
13061;SDS011;6597;52.218;9.882;2023-05-07T03:29:46;25.90;;;13.20;;
13061;SDS011;6597;52.218;9.882;2023-05-07T03:32:12;25.83;;;12.60;;
13061;SDS011;6597;52.218;9.882;2023-05-07T03:34:39;22.07;;;11.87;;
13061;SDS011;6597;52.218;9.882;2023-05-07T03:37:06;18.97;;;11.37;;
13061;SDS011;6597;52.218;9.882;2023-05-07T03:39:34;19.90;;;11.77;;
13061;SDS011;6597;52.218;9.882;2023-05-07T03:42:00;22.63;;;11.93;;
13061;SDS011;6597;52.218;9.882;2023-05-07T03:44:28;21.73;;;11.97;;
13061;SDS011;6597;52.218;9.882;2023-05-07T03:46:56;24.93;;;12.43;;
13061;SDS011;6597;52.218;9.882;2023-05-07T03:49:22;20.93;;;11.80;;
13061;SDS011;6597;52.218;9.882;2023-05-07T03:51:49;26.37;;;11.30;;
13061;SDS011;6597;52.218;9.882;2023-05-07T03:54:16;17.83;;;10.40;;
13061;SDS011;6597;52.218;9.882;2023-05-07T03:56:46;21.67;;;11.20;;
13061;SDS011;6597;52.218;9.882;2023-05-07T03:59:13;20.67;;;10.70;;
13061;SDS011;6597;52.218;9.882;2023-05-07T04:01:42;20.17;;;11.23;;
13061;SDS011;6597;52.218;9.882;2023-05-07T04:04:13;18.20;;;11.30;;
13061;SDS011;6597;52.218;9.882;2023-05-07T04:06:39;21.67;;;11.47;;
13061;SDS011;6597;52.218;9.882;2023-05-07T04:09:06;22.03;;;11.93;;
13061;SDS011;6597;52.218;9.882;2023-05-07T04:11:35;18.40;;;10.63;;
13061;SDS011;6597;52.218;9.882;2023-05-07T04:14:04;22.37;;;11.67;;
13061;SDS011;6597;52.218;9.882;2023-05-07T04:16:31;18.10;;;11.40;;
13061;SDS011;6597;52.218;9.882;2023-05-07T04:18:57;22.53;;;11.70;;
13061;SDS011;6597;52.218;9.882;2023-05-07T04:21:24;18.83;;;10.73;;
13061;SDS011;6597;52.218;9.882;2023-05-07T04:23:51;24.97;;;12.07;;
13061;SDS011;6597;52.218;9.882;2023-05-07T04:26:18;19.33;;;10.83;;
13061;SDS011;6597;52.218;9.882;2023-05-07T04:28:46;19.90;;;11.03;;
13061;SDS011;6597;52.218;9.882;2023-05-07T04:31:15;16.73;;;10.57;;
13061;SDS011;6597;52.218;9.882;2023-05-07T04:33:43;19.37;;;10.77;;
13061;SDS011;6597;52.218;9.882;2023-05-07T04:36:12;17.03;;;9.83;;
13061;SDS011;6597;52.218;9.882;2023-05-07T04:38:48;18.37;;;9.70;;
13061;SDS011;6597;52.218;9.882;2023-05-07T04:41:17;20.10;;;9.47;;
13061;SDS011;6597;52.218;9.882;2023-05-07T04:43:43;18.40;;;10.10;;
13061;SDS011;6597;52.218;9.882;2023-05-07T04:46:12;19.77;;;9.77;;
13061;SDS011;6597;52.218;9.882;2023-05-07T04:48:41;15.00;;;9.43;;
13061;SDS011;6597;52.218;9.882;2023-05-07T04:51:08;18.27;;;9.83;;
13061;SDS011;6597;52.218;9.882;2023-05-07T04:53:34;20.63;;;11.23;;
13061;SDS011;6597;52.218;9.882;2023-05-07T04:56:01;18.77;;;9.70;;
13061;SDS011;6597;52.218;9.882;2023-05-07T04:58:37;16.70;;;9.13;;
13061;SDS011;6597;52.218;9.882;2023-05-07T05:01:04;17.37;;;9.47;;
13061;SDS011;6597;52.218;9.882;2023-05-07T05:03:31;17.43;;;9.33;;
13061;SDS011;6597;52.218;9.882;2023-05-07T05:05:59;16.43;;;9.17;;
13061;SDS011;6597;52.218;9.882;2023-05-07T05:08:29;15.53;;;8.33;;
13061;SDS011;6597;52.218;9.882;2023-05-07T05:10:56;15.83;;;8.10;;
13061;SDS011;6597;52.218;9.882;2023-05-07T05:13:23;14.33;;;7.27;;
13061;SDS011;6597;52.218;9.882;2023-05-07T05:15:50;14.83;;;7.90;;
13061;SDS011;6597;52.218;9.882;2023-05-07T05:18:16;11.93;;;7.70;;
13061;SDS011;6597;52.218;9.882;2023-05-07T05:20:44;13.93;;;8.73;;
13061;SDS011;6597;52.218;9.882;2023-05-07T05:23:12;14.70;;;7.87;;
13061;SDS011;6597;52.218;9.882;2023-05-07T05:25:39;17.00;;;8.03;;
13061;SDS011;6597;52.218;9.882;2023-05-07T05:28:08;13.17;;;7.57;;
13061;SDS011;6597;52.218;9.882;2023-05-07T05:30:35;14.87;;;8.23;;
13061;SDS011;6597;52.218;9.882;2023-05-07T05:33:01;11.00;;;6.57;;
13061;SDS011;6597;52.218;9.882;2023-05-07T05:35:29;10.97;;;6.73;;
13061;SDS011;6597;52.218;9.882;2023-05-07T05:37:56;11.87;;;6.50;;
13061;SDS011;6597;52.218;9.882;2023-05-07T05:40:24;12.40;;;7.03;;
13061;SDS011;6597;52.218;9.882;2023-05-07T05:42:51;17.57;;;6.90;;
13061;SDS011;6597;52.218;9.882;2023-05-07T05:45:18;11.83;;;6.77;;
13061;SDS011;6597;52.218;9.882;2023-05-07T05:47:45;10.93;;;6.17;;
13061;SDS011;6597;52.218;9.882;2023-05-07T05:50:11;12.33;;;7.03;;
13061;SDS011;6597;52.218;9.882;2023-05-07T05:52:38;11.97;;;7.20;;
13061;SDS011;6597;52.218;9.882;2023-05-07T05:55:06;11.20;;;6.30;;
13061;SDS011;6597;52.218;9.882;2023-05-07T05:57:36;10.13;;;5.93;;
13061;SDS011;6597;52.218;9.882;2023-05-07T06:00:02;9.70;;;5.57;;
13061;SDS011;6597;52.218;9.882;2023-05-07T06:02:32;9.70;;;6.10;;
13061;SDS011;6597;52.218;9.882;2023-05-07T06:04:59;9.87;;;5.63;;
13061;SDS011;6597;52.218;9.882;2023-05-07T06:07:25;9.87;;;6.13;;
13061;SDS011;6597;52.218;9.882;2023-05-07T06:09:52;11.17;;;6.07;;
13061;SDS011;6597;52.218;9.882;2023-05-07T06:12:20;8.97;;;5.30;;
13061;SDS011;6597;52.218;9.882;2023-05-07T06:14:48;9.83;;;5.37;;
13061;SDS011;6597;52.218;9.882;2023-05-07T06:17:15;9.80;;;5.90;;
13061;SDS011;6597;52.218;9.882;2023-05-07T06:19:42;9.93;;;5.47;;
13061;SDS011;6597;52.218;9.882;2023-05-07T06:22:10;7.33;;;5.20;;
13061;SDS011;6597;52.218;9.882;2023-05-07T06:24:37;7.97;;;5.20;;
13061;SDS011;6597;52.218;9.882;2023-05-07T06:27:05;8.47;;;4.53;;
13061;SDS011;6597;52.218;9.882;2023-05-07T06:29:32;8.53;;;5.43;;
13061;SDS011;6597;52.218;9.882;2023-05-07T06:32:07;7.20;;;4.90;;
13061;SDS011;6597;52.218;9.882;2023-05-07T06:34:34;8.00;;;4.80;;
13061;SDS011;6597;52.218;9.882;2023-05-07T06:37:00;8.23;;;4.63;;
13061;SDS011;6597;52.218;9.882;2023-05-07T06:39:38;8.37;;;4.93;;
13061;SDS011;6597;52.218;9.882;2023-05-07T06:42:05;6.50;;;4.40;;
13061;SDS011;6597;52.218;9.882;2023-05-07T06:44:32;8.90;;;4.90;;
13061;SDS011;6597;52.218;9.882;2023-05-07T06:47:07;8.13;;;5.17;;
13061;SDS011;6597;52.218;9.882;2023-05-07T06:49:36;6.77;;;4.50;;
13061;SDS011;6597;52.218;9.882;2023-05-07T06:52:03;6.30;;;3.80;;
13061;SDS011;6597;52.218;9.882;2023-05-07T06:54:30;8.67;;;4.90;;
13061;SDS011;6597;52.218;9.882;2023-05-07T06:56:57;9.00;;;4.23;;
13061;SDS011;6597;52.218;9.882;2023-05-07T06:59:26;6.03;;;4.17;;
13061;SDS011;6597;52.218;9.882;2023-05-07T07:01:53;7.57;;;4.97;;
13061;SDS011;6597;52.218;9.882;2023-05-07T07:04:21;6.83;;;4.20;;
13061;SDS011;6597;52.218;9.882;2023-05-07T07:06:57;6.97;;;4.43;;
13061;SDS011;6597;52.218;9.882;2023-05-07T07:09:23;6.10;;;4.20;;
13061;SDS011;6597;52.218;9.882;2023-05-07T07:11:51;8.07;;;4.20;;
13061;SDS011;6597;52.218;9.882;2023-05-07T07:14:18;7.53;;;5.13;;
13061;SDS011;6597;52.218;9.882;2023-05-07T07:16:48;8.30;;;5.30;;
13061;SDS011;6597;52.218;9.882;2023-05-07T07:19:17;8.10;;;5.13;;
13061;SDS011;6597;52.218;9.882;2023-05-07T07:21:47;7.57;;;4.73;;
13061;SDS011;6597;52.218;9.882;2023-05-07T07:24:14;7.93;;;5.13;;
13061;SDS011;6597;52.218;9.882;2023-05-07T07:26:45;8.93;;;5.40;;
13061;SDS011;6597;52.218;9.882;2023-05-07T07:29:12;10.50;;;5.57;;
13061;SDS011;6597;52.218;9.882;2023-05-07T07:31:40;10.37;;;4.90;;
13061;SDS011;6597;52.218;9.882;2023-05-07T07:34:08;9.10;;;5.60;;
13061;SDS011;6597;52.218;9.882;2023-05-07T07:36:35;8.70;;;5.33;;
13061;SDS011;6597;52.218;9.882;2023-05-07T07:39:03;9.30;;;5.80;;
13061;SDS011;6597;52.218;9.882;2023-05-07T07:41:29;8.37;;;5.07;;
13061;SDS011;6597;52.218;9.882;2023-05-07T07:43:56;9.33;;;5.70;;
13061;SDS011;6597;52.218;9.882;2023-05-07T07:46:23;6.97;;;4.70;;
13061;SDS011;6597;52.218;9.882;2023-05-07T07:48:52;9.07;;;4.73;;
13061;SDS011;6597;52.218;9.882;2023-05-07T07:51:19;8.43;;;4.87;;
13061;SDS011;6597;52.218;9.882;2023-05-07T07:53:45;7.60;;;5.00;;
13061;SDS011;6597;52.218;9.882;2023-05-07T07:56:14;7.33;;;4.77;;
13061;SDS011;6597;52.218;9.882;2023-05-07T07:58:41;8.83;;;4.97;;
13061;SDS011;6597;52.218;9.882;2023-05-07T08:01:08;9.03;;;5.43;;
13061;SDS011;6597;52.218;9.882;2023-05-07T08:03:35;11.17;;;5.93;;
13061;SDS011;6597;52.218;9.882;2023-05-07T08:06:01;10.57;;;6.43;;
13061;SDS011;6597;52.218;9.882;2023-05-07T08:08:30;10.20;;;6.33;;
13061;SDS011;6597;52.218;9.882;2023-05-07T08:10:56;9.17;;;6.33;;
13061;SDS011;6597;52.218;9.882;2023-05-07T08:13:30;11.93;;;7.03;;
13061;SDS011;6597;52.218;9.882;2023-05-07T08:15:57;11.87;;;6.80;;
13061;SDS011;6597;52.218;9.882;2023-05-07T08:18:24;11.83;;;7.53;;
13061;SDS011;6597;52.218;9.882;2023-05-07T08:20:52;9.30;;;6.37;;
13061;SDS011;6597;52.218;9.882;2023-05-07T08:23:21;11.27;;;6.73;;
13061;SDS011;6597;52.218;9.882;2023-05-07T08:25:49;10.20;;;6.53;;
13061;SDS011;6597;52.218;9.882;2023-05-07T08:28:16;9.53;;;5.87;;
13061;SDS011;6597;52.218;9.882;2023-05-07T08:30:46;11.27;;;6.10;;
13061;SDS011;6597;52.218;9.882;2023-05-07T08:33:12;11.63;;;6.30;;
13061;SDS011;6597;52.218;9.882;2023-05-07T08:35:39;8.67;;;5.00;;
13061;SDS011;6597;52.218;9.882;2023-05-07T08:38:07;8.23;;;5.43;;
13061;SDS011;6597;52.218;9.882;2023-05-07T08:40:36;8.47;;;5.33;;
13061;SDS011;6597;52.218;9.882;2023-05-07T08:43:11;8.70;;;5.97;;
13061;SDS011;6597;52.218;9.882;2023-05-07T08:45:40;10.17;;;5.97;;
13061;SDS011;6597;52.218;9.882;2023-05-07T08:48:14;8.27;;;5.77;;
13061;SDS011;6597;52.218;9.882;2023-05-07T08:50:45;7.90;;;5.47;;
13061;SDS011;6597;52.218;9.882;2023-05-07T08:53:12;9.00;;;5.53;;
13061;SDS011;6597;52.218;9.882;2023-05-07T08:55:40;8.83;;;6.10;;
13061;SDS011;6597;52.218;9.882;2023-05-07T08:58:07;8.50;;;5.67;;
13061;SDS011;6597;52.218;9.882;2023-05-07T09:00:37;9.67;;;5.53;;
13061;SDS011;6597;52.218;9.882;2023-05-07T09:03:06;11.73;;;5.67;;
13061;SDS011;6597;52.218;9.882;2023-05-07T09:05:35;9.50;;;5.30;;
13061;SDS011;6597;52.218;9.882;2023-05-07T09:08:05;9.77;;;5.67;;
13061;SDS011;6597;52.218;9.882;2023-05-07T09:10:34;11.40;;;6.37;;
13061;SDS011;6597;52.218;9.882;2023-05-07T09:13:02;9.97;;;5.63;;
13061;SDS011;6597;52.218;9.882;2023-05-07T09:15:29;9.40;;;5.90;;
13061;SDS011;6597;52.218;9.882;2023-05-07T09:17:58;7.80;;;4.83;;
13061;SDS011;6597;52.218;9.882;2023-05-07T09:20:29;7.97;;;6.03;;
13061;SDS011;6597;52.218;9.882;2023-05-07T09:22:58;9.10;;;6.07;;
13061;SDS011;6597;52.218;9.882;2023-05-07T09:25:29;9.70;;;5.73;;
13061;SDS011;6597;52.218;9.882;2023-05-07T09:27:59;10.93;;;6.37;;
13061;SDS011;6597;52.218;9.882;2023-05-07T09:30:27;10.13;;;5.93;;
13061;SDS011;6597;52.218;9.882;2023-05-07T09:32:57;11.90;;;6.07;;
13061;SDS011;6597;52.218;9.882;2023-05-07T09:35:24;9.90;;;6.17;;
13061;SDS011;6597;52.218;9.882;2023-05-07T09:37:56;9.87;;;6.10;;
13061;SDS011;6597;52.218;9.882;2023-05-07T09:40:26;11.10;;;6.60;;
13061;SDS011;6597;52.218;9.882;2023-05-07T09:42:56;15.43;;;6.63;;
13061;SDS011;6597;52.218;9.882;2023-05-07T09:45:35;13.17;;;7.20;;
13061;SDS011;6597;52.218;9.882;2023-05-07T09:48:04;11.13;;;7.30;;
13061;SDS011;6597;52.218;9.882;2023-05-07T09:50:32;7.90;;;6.07;;
13061;SDS011;6597;52.218;9.882;2023-05-07T09:53:07;9.93;;;6.97;;
13061;SDS011;6597;52.218;9.882;2023-05-07T09:55:39;11.57;;;7.30;;
13061;SDS011;6597;52.218;9.882;2023-05-07T09:58:07;13.43;;;7.80;;
13061;SDS011;6597;52.218;9.882;2023-05-07T10:00:34;13.03;;;7.10;;
13061;SDS011;6597;52.218;9.882;2023-05-07T10:03:08;11.20;;;7.13;;
13061;SDS011;6597;52.218;9.882;2023-05-07T10:05:43;12.60;;;7.37;;
13061;SDS011;6597;52.218;9.882;2023-05-07T10:08:13;11.60;;;7.17;;
13061;SDS011;6597;52.218;9.882;2023-05-07T10:10:42;11.57;;;7.17;;
13061;SDS011;6597;52.218;9.882;2023-05-07T10:13:14;12.87;;;7.27;;
13061;SDS011;6597;52.218;9.882;2023-05-07T10:15:46;9.50;;;6.80;;
13061;SDS011;6597;52.218;9.882;2023-05-07T10:18:14;12.13;;;7.70;;
13061;SDS011;6597;52.218;9.882;2023-05-07T10:20:45;10.97;;;6.50;;
13061;SDS011;6597;52.218;9.882;2023-05-07T10:23:16;9.43;;;6.73;;
13061;SDS011;6597;52.218;9.882;2023-05-07T10:25:47;9.70;;;6.20;;
13061;SDS011;6597;52.218;9.882;2023-05-07T10:28:19;9.37;;;6.37;;
13061;SDS011;6597;52.218;9.882;2023-05-07T10:30:52;11.73;;;6.47;;
13061;SDS011;6597;52.218;9.882;2023-05-07T10:33:33;9.73;;;6.07;;
13061;SDS011;6597;52.218;9.882;2023-05-07T10:36:02;10.27;;;7.03;;
13061;SDS011;6597;52.218;9.882;2023-05-07T10:38:34;15.37;;;6.77;;
13061;SDS011;6597;52.218;9.882;2023-05-07T10:41:01;14.43;;;6.47;;
13061;SDS011;6597;52.218;9.882;2023-05-07T10:43:38;9.93;;;6.63;;
13061;SDS011;6597;52.218;9.882;2023-05-07T10:46:11;10.50;;;6.73;;
13061;SDS011;6597;52.218;9.882;2023-05-07T10:52:10;8.00;;;6.10;;
13061;SDS011;6597;52.218;9.882;2023-05-07T10:54:40;11.97;;;5.93;;
13061;SDS011;6597;52.218;9.882;2023-05-07T11:03:19;9.53;;;6.20;;
13061;SDS011;6597;52.218;9.882;2023-05-07T11:06:10;9.37;;;6.20;;
13061;SDS011;6597;52.218;9.882;2023-05-07T11:08:54;9.17;;;5.93;;
13061;SDS011;6597;52.218;9.882;2023-05-07T11:11:45;9.00;;;5.57;;
13061;SDS011;6597;52.218;9.882;2023-05-07T11:17:18;7.13;;;5.30;;
13061;SDS011;6597;52.218;9.882;2023-05-07T11:19:52;8.70;;;5.57;;
13061;SDS011;6597;52.218;9.882;2023-05-07T11:22:38;10.30;;;5.23;;
13061;SDS011;6597;52.218;9.882;2023-05-07T11:25:21;8.13;;;5.20;;
13061;SDS011;6597;52.218;9.882;2023-05-07T11:27:57;8.53;;;4.90;;
13061;SDS011;6597;52.218;9.882;2023-05-07T11:30:31;10.83;;;5.93;;
13061;SDS011;6597;52.218;9.882;2023-05-07T11:32:58;8.30;;;5.57;;
13061;SDS011;6597;52.218;9.882;2023-05-07T11:35:25;8.83;;;5.83;;
13061;SDS011;6597;52.218;9.882;2023-05-07T11:37:57;7.80;;;5.40;;
13061;SDS011;6597;52.218;9.882;2023-05-07T11:40:26;7.07;;;5.17;;
13061;SDS011;6597;52.218;9.882;2023-05-07T11:42:53;9.30;;;5.20;;
13061;SDS011;6597;52.218;9.882;2023-05-07T11:45:24;10.17;;;6.33;;
13061;SDS011;6597;52.218;9.882;2023-05-07T11:47:51;11.43;;;5.87;;
13061;SDS011;6597;52.218;9.882;2023-05-07T11:50:17;8.37;;;5.53;;
13061;SDS011;6597;52.218;9.882;2023-05-07T11:52:49;6.50;;;5.07;;
13061;SDS011;6597;52.218;9.882;2023-05-07T11:55:17;6.87;;;4.97;;
13061;SDS011;6597;52.218;9.882;2023-05-07T11:57:44;10.93;;;4.87;;
13061;SDS011;6597;52.218;9.882;2023-05-07T12:00:11;7.27;;;4.90;;
13061;SDS011;6597;52.218;9.882;2023-05-07T12:02:43;7.23;;;5.13;;
13061;SDS011;6597;52.218;9.882;2023-05-07T12:05:09;6.67;;;4.87;;
13061;SDS011;6597;52.218;9.882;2023-05-07T12:07:36;8.37;;;5.50;;
13061;SDS011;6597;52.218;9.882;2023-05-07T12:10:04;7.80;;;4.90;;
13061;SDS011;6597;52.218;9.882;2023-05-07T12:12:30;9.10;;;5.20;;
13061;SDS011;6597;52.218;9.882;2023-05-07T12:14:57;8.47;;;5.30;;
13061;SDS011;6597;52.218;9.882;2023-05-07T12:17:24;6.83;;;4.77;;
13061;SDS011;6597;52.218;9.882;2023-05-07T12:19:52;7.23;;;5.07;;
13061;SDS011;6597;52.218;9.882;2023-05-07T12:22:18;6.70;;;4.50;;
13061;SDS011;6597;52.218;9.882;2023-05-07T12:24:46;8.17;;;5.00;;
13061;SDS011;6597;52.218;9.882;2023-05-07T12:27:14;8.13;;;5.23;;
13061;SDS011;6597;52.218;9.882;2023-05-07T12:29:43;6.20;;;4.60;;
13061;SDS011;6597;52.218;9.882;2023-05-07T12:32:12;7.10;;;5.13;;
13061;SDS011;6597;52.218;9.882;2023-05-07T12:34:39;6.70;;;4.80;;
13061;SDS011;6597;52.218;9.882;2023-05-07T12:37:07;6.37;;;4.97;;
13061;SDS011;6597;52.218;9.882;2023-05-07T12:39:35;7.82;;;4.60;;
13061;SDS011;6597;52.218;9.882;2023-05-07T12:42:01;4.97;;;4.40;;
13061;SDS011;6597;52.218;9.882;2023-05-07T12:44:29;6.37;;;4.70;;
13061;SDS011;6597;52.218;9.882;2023-05-07T12:46:58;5.00;;;4.37;;
13061;SDS011;6597;52.218;9.882;2023-05-07T12:49:27;6.30;;;4.30;;
13061;SDS011;6597;52.218;9.882;2023-05-07T12:51:54;6.60;;;5.10;;
13061;SDS011;6597;52.218;9.882;2023-05-07T12:54:29;5.00;;;4.50;;
13061;SDS011;6597;52.218;9.882;2023-05-07T12:57:02;7.00;;;5.73;;
13061;SDS011;6597;52.218;9.882;2023-05-07T12:59:34;8.23;;;5.60;;
13061;SDS011;6597;52.218;9.882;2023-05-07T13:02:03;6.90;;;5.80;;
13061;SDS011;6597;52.218;9.882;2023-05-07T13:04:30;11.53;;;6.53;;
13061;SDS011;6597;52.218;9.882;2023-05-07T13:06:56;9.30;;;6.23;;
13061;SDS011;6597;52.218;9.882;2023-05-07T13:09:23;13.00;;;6.50;;
13061;SDS011;6597;52.218;9.882;2023-05-07T13:11:51;12.17;;;6.27;;
13061;SDS011;6597;52.218;9.882;2023-05-07T13:14:18;9.63;;;6.43;;
13061;SDS011;6597;52.218;9.882;2023-05-07T13:16:45;11.67;;;6.80;;
13061;SDS011;6597;52.218;9.882;2023-05-07T13:19:12;8.83;;;6.73;;
13061;SDS011;6597;52.218;9.882;2023-05-07T13:21:39;11.40;;;7.25;;
13061;SDS011;6597;52.218;9.882;2023-05-07T13:24:05;9.07;;;6.75;;
13061;SDS011;6597;52.218;9.882;2023-05-07T13:26:33;8.63;;;6.50;;
13061;SDS011;6597;52.218;9.882;2023-05-07T13:29:00;7.93;;;6.07;;
13061;SDS011;6597;52.218;9.882;2023-05-07T13:31:27;8.63;;;5.63;;
13061;SDS011;6597;52.218;9.882;2023-05-07T13:33:54;7.45;;;5.68;;
13061;SDS011;6597;52.218;9.882;2023-05-07T13:36:21;11.07;;;6.97;;
13061;SDS011;6597;52.218;9.882;2023-05-07T13:38:47;8.38;;;5.85;;
13061;SDS011;6597;52.218;9.882;2023-05-07T13:41:15;10.55;;;6.57;;
13061;SDS011;6597;52.218;9.882;2023-05-07T13:43:41;8.30;;;6.07;;
13061;SDS011;6597;52.218;9.882;2023-05-07T13:46:09;11.60;;;6.38;;
13061;SDS011;6597;52.218;9.882;2023-05-07T13:48:36;7.07;;;5.65;;
13061;SDS011;6597;52.218;9.882;2023-05-07T13:51:02;7.22;;;5.68;;
13061;SDS011;6597;52.218;9.882;2023-05-07T13:53:29;7.47;;;5.80;;
13061;SDS011;6597;52.218;9.882;2023-05-07T13:55:56;9.07;;;6.07;;
13061;SDS011;6597;52.218;9.882;2023-05-07T13:58:22;7.70;;;5.43;;
13061;SDS011;6597;52.218;9.882;2023-05-07T14:00:49;9.55;;;6.47;;
13061;SDS011;6597;52.218;9.882;2023-05-07T14:03:17;8.48;;;6.05;;
13061;SDS011;6597;52.218;9.882;2023-05-07T14:05:44;6.63;;;5.40;;
13061;SDS011;6597;52.218;9.882;2023-05-07T14:08:11;6.78;;;5.18;;
13061;SDS011;6597;52.218;9.882;2023-05-07T14:10:38;6.50;;;5.07;;
13061;SDS011;6597;52.218;9.882;2023-05-07T14:13:05;8.50;;;5.57;;
13061;SDS011;6597;52.218;9.882;2023-05-07T14:15:32;8.63;;;4.75;;
13061;SDS011;6597;52.218;9.882;2023-05-07T14:17:59;13.07;;;5.38;;
13061;SDS011;6597;52.218;9.882;2023-05-07T14:20:28;6.80;;;5.63;;
13061;SDS011;6597;52.218;9.882;2023-05-07T14:22:56;9.32;;;5.85;;
13061;SDS011;6597;52.218;9.882;2023-05-07T14:25:22;7.18;;;5.43;;
13061;SDS011;6597;52.218;9.882;2023-05-07T14:27:50;6.68;;;5.50;;
13061;SDS011;6597;52.218;9.882;2023-05-07T14:30:17;7.90;;;5.03;;
13061;SDS011;6597;52.218;9.882;2023-05-07T14:32:43;8.85;;;5.78;;
13061;SDS011;6597;52.218;9.882;2023-05-07T14:35:10;7.85;;;5.53;;
13061;SDS011;6597;52.218;9.882;2023-05-07T14:37:38;6.90;;;5.28;;
13061;SDS011;6597;52.218;9.882;2023-05-07T14:40:05;8.93;;;5.28;;
13061;SDS011;6597;52.218;9.882;2023-05-07T14:42:32;11.00;;;6.20;;
13061;SDS011;6597;52.218;9.882;2023-05-07T14:44:59;6.60;;;4.95;;
13061;SDS011;6597;52.218;9.882;2023-05-07T14:47:26;12.48;;;5.88;;
13061;SDS011;6597;52.218;9.882;2023-05-07T14:49:52;8.45;;;5.90;;
13061;SDS011;6597;52.218;9.882;2023-05-07T14:52:19;11.13;;;6.55;;
13061;SDS011;6597;52.218;9.882;2023-05-07T14:54:47;11.00;;;6.03;;
13061;SDS011;6597;52.218;9.882;2023-05-07T14:57:14;9.70;;;6.10;;
13061;SDS011;6597;52.218;9.882;2023-05-07T14:59:41;7.50;;;5.57;;
13061;SDS011;6597;52.218;9.882;2023-05-07T15:02:08;9.85;;;6.00;;
13061;SDS011;6597;52.218;9.882;2023-05-07T15:04:36;10.63;;;6.53;;
13061;SDS011;6597;52.218;9.882;2023-05-07T15:07:04;10.35;;;5.57;;
13061;SDS011;6597;52.218;9.882;2023-05-07T15:09:31;9.57;;;6.00;;